createdAt,value
2022-12-04T00:01:21.801Z,100663.09
2022-12-04T00:03:52.981Z,100670.53
2022-12-04T00:06:21.316Z,100664.53
2022-12-04T00:08:48.885Z,100665.03
2022-12-04T00:11:18.566Z,100655.81
2022-12-04T00:13:45.617Z,100664.25
2022-12-04T00:16:18.625Z,100661.34
2022-12-04T00:18:45.454Z,100656.78
2022-12-04T00:21:14.636Z,100655.78
2022-12-04T00:23:42.667Z,100654.34
2022-12-04T00:26:12.378Z,100652.25
2022-12-04T00:28:40.058Z,100665.03
2022-12-04T00:31:08.803Z,100657.75
2022-12-04T00:33:36.222Z,100664.88
2022-12-04T00:36:05.959Z,100651.59
2022-12-04T00:38:32.826Z,100656.63
2022-12-04T00:41:00.730Z,100655.59
2022-12-04T00:43:28.447Z,100657.06
2022-12-04T00:45:55.118Z,100654.50
2022-12-04T00:48:23.165Z,100660.00
2022-12-04T00:50:50.109Z,100658.03
2022-12-04T00:53:16.799Z,100661.31
2022-12-04T00:55:44.842Z,100662.06
2022-12-04T00:58:11.916Z,100654.94
2022-12-04T01:00:40.901Z,100658.97
2022-12-04T01:03:08.775Z,100655.06
2022-12-04T01:05:40.421Z,100657.38
2022-12-04T01:08:07.415Z,100654.44
2022-12-04T01:10:34.363Z,100645.69
2022-12-04T01:13:01.271Z,100652.31
2022-12-04T01:15:27.695Z,100645.69
2022-12-04T01:17:54.128Z,100651.19
2022-12-04T01:20:20.644Z,100645.97
2022-12-04T01:22:47.592Z,100647.81
2022-12-04T01:25:14.165Z,100641.69
2022-12-04T01:27:41.057Z,100644.25
2022-12-04T01:30:08.045Z,100641.50
2022-12-04T01:32:35.393Z,100633.13
2022-12-04T01:35:01.913Z,100634.53
2022-12-04T01:37:31.784Z,100624.22
2022-12-04T01:39:58.640Z,100625.84
2022-12-04T01:42:25.517Z,100631.34
2022-12-04T01:45:36.599Z,100630.69
2022-12-04T01:48:18.644Z,100639.13
2022-12-04T01:50:47.654Z,100654.78
2022-12-04T01:53:14.642Z,100648.00
2022-12-04T01:55:42.035Z,100644.59
2022-12-04T01:58:09.636Z,100641.69
2022-12-04T02:00:36.307Z,100641.97
2022-12-04T02:03:03.643Z,100634.53
2022-12-04T02:05:30.848Z,100637.81
2022-12-04T02:08:01.970Z,100632.28
2022-12-04T02:10:42.114Z,100627.09
2022-12-04T02:13:23.770Z,100631.03
2022-12-04T02:16:03.472Z,100638.25
2022-12-04T02:18:53.119Z,100645.34
2022-12-04T02:21:37.252Z,100650.22
2022-12-04T02:24:12.607Z,100646.94
2022-12-04T02:27:24.612Z,100646.66
2022-12-04T02:30:03.776Z,100640.69
2022-12-04T02:33:00.197Z,100643.28
2022-12-04T02:35:31.879Z,100640.84
2022-12-04T02:38:16.503Z,100640.94
2022-12-04T02:41:07.445Z,100645.81
2022-12-04T02:43:42.376Z,100645.63
2022-12-04T02:46:46.789Z,100645.63
2022-12-04T02:49:19.323Z,100646.44
2022-12-04T02:51:48.544Z,100648.66
2022-12-04T02:54:34.577Z,100654.03
2022-12-04T02:57:04.433Z,100650.75
2022-12-04T02:59:36.490Z,100652.38
2022-12-04T03:02:11.109Z,100654.16
2022-12-04T03:04:39.539Z,100651.41
2022-12-04T03:07:20.019Z,100649.13
2022-12-04T03:09:59.918Z,100649.41
2022-12-04T03:12:50.383Z,100653.06
2022-12-04T03:15:26.577Z,100656.41
2022-12-04T03:18:01.007Z,100655.59
2022-12-04T03:20:30.538Z,100658.16
2022-12-04T03:23:03.334Z,100653.91
2022-12-04T03:25:35.730Z,100650.56
2022-12-04T03:28:10.565Z,100651.34
2022-12-04T03:30:46.947Z,100650.84
2022-12-04T03:33:18.632Z,100670.06
2022-12-04T03:36:06.634Z,100660.91
2022-12-04T03:38:33.388Z,100659.06
2022-12-04T03:41:06.584Z,100661.31
2022-12-04T03:44:04.203Z,100662.59
2022-12-04T03:46:52.788Z,100660.63
2022-12-04T03:49:45.289Z,100659.06
2022-12-04T03:52:29.760Z,100654.69
2022-12-04T03:55:10.582Z,100658.69
2022-12-04T03:57:43.847Z,100655.81
2022-12-04T04:00:16.447Z,100644.50
2022-12-04T04:02:53.385Z,100655.50
2022-12-04T04:05:21.540Z,100659.84
2022-12-04T04:07:56.497Z,100650.69
2022-12-04T04:10:26.482Z,100650.84
2022-12-04T04:13:20.373Z,100650.56
2022-12-04T04:16:13.980Z,100645.31
2022-12-04T04:19:01.776Z,100641.25
2022-12-04T04:21:51.843Z,100635.25
2022-12-04T04:24:42.751Z,100645.06
2022-12-04T04:27:09.484Z,100636.19
2022-12-04T04:29:36.711Z,100645.06
2022-12-04T04:32:18.918Z,100637.31
2022-12-04T04:34:54.954Z,100648.13
2022-12-04T04:37:26.819Z,100638.06
2022-12-04T04:40:11.638Z,100644.06
2022-12-04T04:42:54.581Z,100641.31
2022-12-04T04:45:27.466Z,100642.69
2022-12-04T04:48:00.183Z,100641.06
2022-12-04T04:50:27.620Z,100640.25
2022-12-04T04:53:01.298Z,100631.06
2022-12-04T04:55:29.130Z,100636.56
2022-12-04T04:58:06.667Z,100640.69
2022-12-04T05:00:33.567Z,100627.75
2022-12-04T05:02:59.978Z,100632.00
2022-12-04T05:05:26.590Z,100647.31
2022-12-04T05:07:54.663Z,100642.25
2022-12-04T05:10:21.510Z,100645.50
2022-12-04T05:12:48.554Z,100639.31
2022-12-04T05:15:15.375Z,100633.69
2022-12-04T05:17:41.754Z,100636.56
2022-12-04T05:20:08.691Z,100634.72
2022-12-04T05:22:37.068Z,100638.44
2022-12-04T05:25:04.564Z,100631.22
2022-12-04T05:27:32.420Z,100633.25
2022-12-04T05:29:59.239Z,100632.75
2022-12-04T05:32:28.007Z,100636.06
2022-12-04T05:34:56.105Z,100634.72
2022-12-04T05:37:23.364Z,100636.94
2022-12-04T05:39:49.768Z,100645.28
2022-12-04T05:42:16.834Z,100640.63
2022-12-04T05:44:43.457Z,100641.44
2022-12-04T05:47:10.023Z,100642.25
2022-12-04T05:49:36.648Z,100647.41
2022-12-04T05:52:04.928Z,100637.59
2022-12-04T05:54:31.829Z,100639.91
2022-12-04T05:56:58.434Z,100641.16
2022-12-04T05:59:25.192Z,100627.25
2022-12-04T06:01:52.184Z,100630.88
2022-12-04T06:04:18.717Z,100638.63
2022-12-04T06:06:45.339Z,100635.78
2022-12-04T06:09:12.318Z,100638.41
2022-12-04T06:14:10.522Z,100637.19
2022-12-04T06:16:40.445Z,100643.47
2022-12-04T06:19:12.708Z,100638.63
2022-12-04T06:21:40.736Z,100641.44
2022-12-04T06:24:08.613Z,100655.28
2022-12-04T06:26:35.127Z,100656.47
2022-12-04T06:29:01.628Z,100657.09
2022-12-04T06:31:29.676Z,100655.28
2022-12-04T06:33:57.873Z,100656.09
2022-12-04T06:36:24.974Z,100653.13
2022-12-04T06:38:55.337Z,100653.19
2022-12-04T06:41:22.742Z,100660.09
2022-12-04T06:43:51.526Z,100662.28
2022-12-04T06:46:21.006Z,100658.91
2022-12-04T06:48:48.176Z,100667.91
2022-12-04T06:51:17.655Z,100675.31
2022-12-04T06:53:44.555Z,100673.50
2022-12-04T06:56:14.306Z,100665.69
2022-12-04T06:58:42.319Z,100675.50
2022-12-04T07:01:11.491Z,100674.50
2022-12-04T07:03:38.539Z,100678.38
2022-12-04T07:06:25.913Z,100673.38
2022-12-04T07:09:14.071Z,100678.88
2022-12-04T07:11:41.408Z,100679.31
2022-12-04T07:14:08.392Z,100680.78
2022-12-04T07:16:40.399Z,100678.84
2022-12-04T07:19:09.826Z,100675.16
2022-12-04T07:21:36.298Z,100671.91
2022-12-04T07:24:03.008Z,100675.47
2022-12-04T07:26:30.571Z,100670.19
2022-12-04T07:28:58.162Z,100676.38
2022-12-04T07:31:27.040Z,100672.41
2022-12-04T07:33:54.576Z,100674.47
2022-12-04T07:36:22.486Z,100666.16
2022-12-04T07:38:49.816Z,100677.03
2022-12-04T07:41:17.418Z,100677.97
2022-12-04T07:43:44.793Z,100680.97
2022-12-04T07:46:18.259Z,100680.22
2022-12-04T07:48:45.039Z,100674.66
2022-12-04T07:51:12.891Z,100672.41
2022-12-04T07:53:40.342Z,100676.56
2022-12-04T07:56:07.787Z,100673.28
2022-12-04T07:58:35.050Z,100674.97
2022-12-04T08:01:10.896Z,100666.72
2022-12-04T08:03:43.523Z,100672.06
2022-12-04T08:06:13.563Z,100673.88
2022-12-04T08:08:40.368Z,100673.06
2022-12-04T08:11:08.865Z,100668.66
2022-12-04T08:13:36.261Z,100676.78
2022-12-04T08:16:03.312Z,100670.00
2022-12-04T08:18:30.900Z,100672.00
2022-12-04T08:21:12.415Z,100667.13
2022-12-04T08:23:40.433Z,100668.78
2022-12-04T08:26:08.015Z,100665.16
2022-12-04T08:28:35.314Z,100671.41
2022-12-04T08:31:07.108Z,100669.31
2022-12-04T08:33:34.375Z,100667.69
2022-12-04T08:36:03.075Z,100667.38
2022-12-04T08:38:30.401Z,100676.50
2022-12-04T08:41:01.186Z,100675.28
2022-12-04T08:43:27.824Z,100669.88
2022-12-04T08:45:58.357Z,100674.50
2022-12-04T08:48:25.683Z,100668.19
2022-12-04T08:50:52.542Z,100673.16
2022-12-04T08:53:19.771Z,100683.97
2022-12-04T08:55:46.159Z,100687.09
2022-12-04T08:58:13.008Z,100691.28
2022-12-04T09:00:39.533Z,100694.03
2022-12-04T09:03:06.292Z,100695.53
2022-12-04T09:05:32.779Z,100697.97
2022-12-04T09:07:59.204Z,100700.59
2022-12-04T09:10:25.680Z,100700.41
2022-12-04T09:12:52.549Z,100699.47
2022-12-04T09:15:19.210Z,100714.53
2022-12-04T09:17:45.711Z,100711.34
2022-12-04T09:20:12.638Z,100702.91
2022-12-04T09:23:02.176Z,100704.97
2022-12-04T09:25:26.394Z,100704.66
2022-12-04T09:27:53.042Z,100705.16
2022-12-04T09:30:19.745Z,100693.84
2022-12-04T09:32:46.653Z,100695.47
2022-12-04T09:35:13.269Z,100697.16
2022-12-04T09:37:40.029Z,100693.97
2022-12-04T09:40:07.886Z,100695.59
2022-12-04T09:42:56.921Z,100700.69
2022-12-04T09:45:26.353Z,100697.78
2022-12-04T09:48:02.103Z,100698.19
2022-12-04T09:50:37.588Z,100686.56
2022-12-04T09:53:14.041Z,100682.19
2022-12-04T09:56:01.979Z,100678.38
2022-12-04T09:58:59.736Z,100678.38
2022-12-04T10:01:32.982Z,100673.03
2022-12-04T10:04:05.719Z,100661.44
2022-12-04T10:06:55.271Z,100655.84
2022-12-04T10:09:44.081Z,100653.97
2022-12-04T10:12:25.602Z,100652.47
2022-12-04T10:15:08.733Z,100652.19
2022-12-04T10:17:57.190Z,100653.19
2022-12-04T10:20:24.084Z,100652.00
2022-12-04T10:23:13.745Z,100648.50
2022-12-04T10:25:42.077Z,100637.00
2022-12-04T10:28:27.479Z,100637.81
2022-12-04T10:30:57.810Z,100631.06
2022-12-04T10:33:35.554Z,100627.78
2022-12-04T10:36:02.798Z,100623.91
2022-12-04T10:39:03.405Z,100631.16
2022-12-04T10:41:47.907Z,100625.81
2022-12-04T10:44:17.007Z,100627.25
2022-12-04T10:46:46.322Z,100628.47
2022-12-04T10:49:24.640Z,100631.72
2022-12-04T10:51:52.031Z,100618.72
2022-12-04T10:54:43.271Z,100622.81
2022-12-04T10:57:11.428Z,100620.88
2022-12-04T10:59:51.350Z,100618.78
2022-12-04T11:02:25.647Z,100612.91
2022-12-04T11:04:56.977Z,100618.44
2022-12-04T11:07:30.091Z,100608.06
2022-12-04T11:10:03.336Z,100612.97
2022-12-04T11:12:31.305Z,100607.56
2022-12-04T11:15:06.951Z,100605.03
2022-12-04T11:17:34.376Z,100597.09
2022-12-04T11:20:21.203Z,100593.22
2022-12-04T11:22:52.401Z,100593.84
2022-12-04T11:25:20.675Z,100585.13
2022-12-04T11:27:51.240Z,100584.63
2022-12-04T11:30:35.959Z,100583.66
2022-12-04T11:33:04.443Z,100580.25
2022-12-04T11:35:32.160Z,100586.41
2022-12-04T11:38:08.215Z,100586.69
2022-12-04T11:40:36.337Z,100595.47
2022-12-04T11:43:14.050Z,100582.06
2022-12-04T11:45:40.789Z,100584.16
2022-12-04T11:48:16.584Z,100586.75
2022-12-04T11:51:06.924Z,100598.88
2022-12-04T11:53:56.200Z,100587.25
2022-12-04T11:56:29.051Z,100579.75
2022-12-04T11:59:15.697Z,100577.66
2022-12-04T12:02:13.212Z,100582.53
2022-12-04T12:04:42.934Z,100589.34
2022-12-04T12:07:21.379Z,100572.66
2022-12-04T12:09:59.857Z,100574.59
2022-12-04T12:12:36.326Z,100574.41
2022-12-04T12:15:24.836Z,100576.38
2022-12-04T12:18:36.335Z,100571.97
2022-12-04T12:21:12.583Z,100575.38
2022-12-04T12:24:08.667Z,100568.56
2022-12-04T12:27:06.987Z,100565.19
2022-12-04T12:29:57.348Z,100563.56
2022-12-04T12:32:30.306Z,100567.78
2022-12-04T12:34:59.208Z,100564.69
2022-12-04T12:37:41.588Z,100560.50
2022-12-04T12:40:33.056Z,100565.00
2022-12-04T12:43:11.128Z,100570.53
2022-12-04T12:45:50.321Z,100569.22
2022-12-04T12:48:26.536Z,100566.31
2022-12-04T12:51:22.195Z,100558.38
2022-12-04T12:53:51.315Z,100553.97
2022-12-04T12:56:21.858Z,100540.88
2022-12-04T12:58:54.228Z,100552.84
2022-12-04T13:01:45.365Z,100545.09
2022-12-04T13:04:36.430Z,100544.09
2022-12-04T13:07:24.928Z,100540.38
2022-12-04T13:10:24.118Z,100536.03
2022-12-04T13:12:58.001Z,100535.53
2022-12-04T13:15:41.192Z,100536.19
2022-12-04T13:18:15.506Z,100542.19
2022-12-04T13:20:53.538Z,100543.63
2022-12-04T13:23:36.030Z,100542.00
2022-12-04T13:26:42.564Z,100545.88
2022-12-04T13:29:41.188Z,100549.47
2022-12-04T13:32:42.951Z,100544.28
2022-12-04T13:35:42.595Z,100548.00
2022-12-04T13:38:34.534Z,100551.38
2022-12-04T13:41:17.017Z,100546.38
2022-12-04T13:43:44.219Z,100549.78
2022-12-04T13:46:22.953Z,100546.69
2022-12-04T13:48:49.460Z,100544.44
2022-12-04T13:51:16.072Z,100539.59
2022-12-04T13:53:43.584Z,100530.53
2022-12-04T13:56:30.881Z,100529.88
2022-12-04T13:59:01.995Z,100523.72
2022-12-04T14:01:38.324Z,100529.22
2022-12-04T14:04:05.900Z,100530.38
2022-12-04T14:06:40.995Z,100532.47
2022-12-04T14:09:20.628Z,100529.06
2022-12-04T14:11:52.809Z,100530.19
2022-12-04T14:14:32.364Z,100524.81
2022-12-04T14:16:59.793Z,100527.59
2022-12-04T14:19:28.697Z,100534.41
2022-12-04T14:21:55.765Z,100535.38
2022-12-04T14:24:25.363Z,100543.31
2022-12-04T14:29:47.415Z,100539.91
2022-12-04T14:32:23.098Z,100529.88
2022-12-04T14:34:50.298Z,100523.53
2022-12-04T14:37:40.718Z,100528.59
2022-12-04T14:40:20.476Z,100522.41
2022-12-04T14:42:48.901Z,100522.09
2022-12-04T14:45:31.773Z,100526.63
2022-12-04T14:48:31.314Z,100519.16
2022-12-04T14:51:16.820Z,100515.44
2022-12-04T14:53:49.018Z,100517.06
2022-12-04T14:56:41.550Z,100511.41
2022-12-04T14:59:23.417Z,100513.19
2022-12-04T15:01:53.591Z,100513.34
2022-12-04T15:04:34.581Z,100512.72
2022-12-04T15:07:02.425Z,100516.28
2022-12-04T15:09:48.209Z,100515.94
2022-12-04T15:12:36.965Z,100521.44
2022-12-04T15:15:27.744Z,100523.22
2022-12-04T15:18:02.017Z,100518.03
2022-12-04T15:20:37.415Z,100520.16
2022-12-04T15:23:06.394Z,100522.06
2022-12-04T15:25:54.378Z,100523.22
2022-12-04T15:28:31.274Z,100526.00
2022-12-04T15:31:01.695Z,100519.97
2022-12-04T15:33:35.535Z,100522.72
2022-12-04T15:36:08.195Z,100517.88
2022-12-04T15:38:36.434Z,100516.56
2022-12-04T15:41:03.060Z,100519.00
2022-12-04T15:43:32.024Z,100527.94
2022-12-04T15:45:59.384Z,100515.78
2022-12-04T15:48:30.985Z,100519.81
2022-12-04T15:51:08.733Z,100524.22
2022-12-04T15:53:38.988Z,100529.38
2022-12-04T15:56:09.543Z,100528.28
2022-12-04T15:58:39.205Z,100520.63
2022-12-04T16:01:09.012Z,100523.38
2022-12-04T16:03:41.897Z,100528.75
2022-12-04T16:06:29.119Z,100535.06
2022-12-04T16:08:58.867Z,100532.47
2022-12-04T16:11:37.754Z,100543.47
2022-12-04T16:14:13.079Z,100546.56
2022-12-04T16:16:44.421Z,100551.91
2022-12-04T16:19:30.287Z,100552.84
2022-12-04T16:21:57.600Z,100555.16
2022-12-04T16:24:24.125Z,100556.28
2022-12-04T16:26:52.585Z,100554.47
2022-12-04T16:29:19.322Z,100553.53
2022-12-04T16:31:45.802Z,100552.38
2022-12-04T16:34:13.200Z,100564.53
2022-12-04T16:36:40.286Z,100563.72
2022-12-04T16:39:06.914Z,100561.78
2022-12-04T16:41:34.542Z,100567.44
2022-12-04T16:44:01.382Z,100569.22
2022-12-04T16:46:29.527Z,100568.91
2022-12-04T16:48:56.781Z,100561.63
2022-12-04T16:51:26.986Z,100557.75
2022-12-04T16:53:57.972Z,100567.78
2022-12-04T16:56:24.656Z,100563.72
2022-12-04T16:58:51.174Z,100557.25
2022-12-04T17:01:26.984Z,100563.06
2022-12-04T17:03:53.648Z,100565.50
2022-12-04T17:06:20.439Z,100567.13
2022-12-04T17:08:47.199Z,100571.47
2022-12-04T17:11:16.052Z,100569.03
2022-12-04T17:13:43.300Z,100569.84
2022-12-04T17:16:14.015Z,100564.34
2022-12-04T17:18:42.746Z,100569.84
2022-12-04T17:21:10.852Z,100559.66
2022-12-04T17:23:38.236Z,100567.44
2022-12-04T17:26:10.850Z,100562.56
2022-12-04T17:28:38.454Z,100576.00
2022-12-04T17:31:13.622Z,100570.19
2022-12-04T17:33:41.176Z,100562.41
2022-12-04T17:36:19.823Z,100569.03
2022-12-04T17:38:46.747Z,100569.19
2022-12-04T17:41:15.077Z,100573.56
2022-12-04T17:43:43.094Z,100570.34
2022-12-04T17:46:11.725Z,100572.59
2022-12-04T17:48:39.081Z,100566.91
2022-12-04T17:51:11.295Z,100574.19
2022-12-04T17:53:38.453Z,100566.72
2022-12-04T17:56:11.336Z,100565.59
2022-12-04T17:58:38.754Z,100569.81
2022-12-04T18:01:07.976Z,100568.34
2022-12-04T18:03:35.764Z,100563.50
2022-12-04T18:06:14.411Z,100557.19
2022-12-04T18:08:45.280Z,100564.34
2022-12-04T18:11:16.636Z,100553.97
2022-12-04T18:13:43.550Z,100556.06
2022-12-04T18:16:11.305Z,100555.56
2022-12-04T18:18:38.835Z,100549.91
2022-12-04T18:21:11.082Z,100553.78
2022-12-04T18:23:44.443Z,100549.91
2022-12-04T18:26:15.111Z,100545.06
2022-12-04T18:28:43.365Z,100552.97
2022-12-04T18:31:10.652Z,100557.84
2022-12-04T18:33:39.590Z,100558.97
2022-12-04T18:36:09.294Z,100553.63
2022-12-04T18:38:35.839Z,100549.91
2022-12-04T18:41:04.043Z,100553.81
2022-12-04T18:43:38.681Z,100557.84
2022-12-04T18:46:08.466Z,100555.41
2022-12-04T18:48:36.771Z,100548.78
2022-12-04T18:51:24.662Z,100547.66
2022-12-04T18:53:53.025Z,100548.94
2022-12-04T18:56:19.938Z,100551.22
2022-12-04T18:58:46.934Z,100543.78
2022-12-04T19:01:16.052Z,100548.94
2022-12-04T19:03:42.606Z,100547.81
2022-12-04T19:06:09.120Z,100554.94
2022-12-04T19:08:41.407Z,100566.25
2022-12-04T19:11:12.865Z,100560.75
2022-12-04T19:13:39.655Z,100554.28
2022-12-04T19:16:12.338Z,100556.22
2022-12-04T19:18:38.799Z,100560.91
2022-12-04T19:21:06.382Z,100561.94
2022-12-04T19:23:32.767Z,100550.41
2022-12-04T19:26:00.582Z,100553.31
2022-12-04T19:28:27.942Z,100556.41
2022-12-04T19:30:54.852Z,100549.28
2022-12-04T19:33:21.983Z,100554.13
2022-12-04T19:36:03.632Z,100542.66
2022-12-04T19:38:32.014Z,100542.47
2022-12-04T19:41:13.508Z,100547.66
2022-12-04T19:43:45.691Z,100545.22
2022-12-04T19:46:15.295Z,100546.19
2022-12-04T19:48:42.676Z,100547.66
2022-12-04T19:51:12.047Z,100551.53
2022-12-04T19:53:41.056Z,100544.91
2022-12-04T19:56:13.800Z,100547.97
2022-12-04T19:58:41.185Z,100544.91
2022-12-04T20:01:10.640Z,100544.91
2022-12-04T20:03:37.590Z,100542.66
2022-12-04T20:06:06.497Z,100551.06
2022-12-04T20:08:34.146Z,100547.66
2022-12-04T20:11:11.913Z,100545.06
2022-12-04T20:13:39.922Z,100537.94
2022-12-04T20:16:09.418Z,100530.19
2022-12-04T20:18:37.782Z,100529.38
2022-12-04T20:21:10.714Z,100519.97
2022-12-04T20:23:49.837Z,100517.22
2022-12-04T20:26:21.940Z,100519.31
2022-12-04T20:28:49.094Z,100514.31
2022-12-04T20:31:24.146Z,100512.69
2022-12-04T20:33:52.926Z,100523.69
2022-12-04T20:36:21.770Z,100537.31
2022-12-04T20:38:49.737Z,100536.03
2022-12-04T20:41:16.310Z,100537.63
2022-12-04T20:43:43.492Z,100538.59
2022-12-04T20:46:25.909Z,100548.00
2022-12-04T20:48:53.561Z,100561.63
2022-12-04T20:51:24.922Z,100567.94
2022-12-04T20:53:53.382Z,100566.97
2022-12-04T20:56:25.702Z,100578.81
2022-12-04T20:58:57.814Z,100584.00
2022-12-04T21:01:25.053Z,100583.50
2022-12-04T21:03:53.017Z,100584.94
2022-12-04T21:06:31.017Z,100594.00
2022-12-04T21:09:02.084Z,100597.56
2022-12-04T21:11:36.619Z,100599.84
2022-12-04T21:14:25.710Z,100596.59
2022-12-04T21:16:52.476Z,100594.66
2022-12-04T21:19:21.433Z,100591.56
2022-12-04T21:21:48.663Z,100595.44
2022-12-04T21:24:18.274Z,100595.63
2022-12-04T21:26:45.727Z,100602.75
2022-12-04T21:29:12.159Z,100605.50
2022-12-04T21:31:39.661Z,100606.13
2022-12-04T21:34:08.621Z,100605.38
2022-12-04T21:36:35.058Z,100602.09
2022-12-04T21:39:01.746Z,100599.19
2022-12-04T21:41:46.975Z,100607.63
2022-12-04T21:44:16.847Z,100606.94
2022-12-04T21:46:44.446Z,100609.25
2022-12-04T21:49:11.916Z,100608.88
2022-12-04T21:51:56.948Z,100603.44
2022-12-04T21:54:25.581Z,100604.41
2022-12-04T21:56:52.121Z,100596.28
2022-12-04T21:59:18.602Z,100593.06
2022-12-04T22:01:45.644Z,100605.03
2022-12-04T22:04:12.677Z,100601.28
2022-12-04T22:06:39.610Z,100604.34
2022-12-04T22:09:09.807Z,100609.25
2022-12-04T22:11:36.916Z,100604.72
2022-12-04T22:14:03.765Z,100602.44
2022-12-04T22:16:31.359Z,100601.97
2022-12-04T22:18:59.907Z,100606.97
2022-12-04T22:21:26.915Z,100608.13
2022-12-04T22:24:01.453Z,100607.31
2022-12-04T22:26:29.567Z,100612.16
2022-12-04T22:28:57.449Z,100607.41
2022-12-04T22:31:28.301Z,100609.34
2022-12-04T22:33:57.143Z,100618.25
2022-12-04T22:36:27.058Z,100612.44
2022-12-04T22:39:10.732Z,100611.47
2022-12-04T22:41:38.414Z,100607.41
2022-12-04T22:44:05.500Z,100607.56
2022-12-04T22:46:32.569Z,100600.59
2022-12-04T22:48:59.824Z,100606.88
2022-12-04T22:51:27.405Z,100604.78
2022-12-04T22:53:55.979Z,100607.69
2022-12-04T22:56:27.080Z,100604.94
2022-12-04T22:58:54.495Z,100600.41
2022-12-04T23:01:24.401Z,100600.22
2022-12-04T23:03:51.707Z,100599.59
2022-12-04T23:06:19.286Z,100602.03
2022-12-04T23:08:46.588Z,100602.94
2022-12-04T23:11:17.133Z,100598.72
2022-12-04T23:13:44.407Z,100602.28
2022-12-04T23:16:13.261Z,100596.81
2022-12-04T23:18:43.415Z,100601.38
2022-12-04T23:21:12.018Z,100599.59
2022-12-04T23:23:40.614Z,100602.31
2022-12-04T23:26:11.439Z,100613.31
2022-12-04T23:28:38.568Z,100606.16
2022-12-04T23:31:05.832Z,100608.09
2022-12-04T23:33:33.490Z,100608.09
2022-12-04T23:36:01.482Z,100605.22
2022-12-04T23:38:29.206Z,100611.03
2022-12-04T23:41:05.663Z,100614.31
2022-12-04T23:43:33.179Z,100614.75
2022-12-04T23:46:03.360Z,100609.09
2022-12-04T23:48:32.522Z,100609.22
2022-12-04T23:50:59.093Z,100603.59
2022-12-04T23:53:25.703Z,100600.81
2022-12-04T23:56:00.436Z,100605.97
2022-12-04T23:58:27.079Z,100597.44
